createdAt,value
2019-01-10T00:00:21.209Z,93.61
2019-01-10T00:01:31.340Z,93.42
2019-01-10T00:02:41.490Z,92.94
2019-01-10T00:03:51.638Z,92.47
2019-01-10T00:05:01.768Z,92.76
2019-01-10T00:06:11.893Z,92.66
2019-01-10T00:07:22.011Z,92.66
2019-01-10T00:08:32.131Z,92.94
2019-01-10T00:09:42.269Z,92.47
2019-01-10T00:10:52.408Z,92.28
2019-01-10T00:12:02.529Z,92.28
2019-01-10T00:13:12.652Z,92.38
2019-01-10T00:14:22.782Z,92.47
2019-01-10T00:15:33.004Z,92.38
2019-01-10T00:16:43.139Z,92.19
2019-01-10T00:17:53.022Z,92.38
2019-01-10T00:19:03.145Z,92.52
2019-01-10T00:20:13.254Z,91.95
2019-01-10T00:21:23.385Z,91.85
2019-01-10T00:22:33.492Z,92.47
2019-01-10T00:23:43.619Z,91.95
2019-01-10T00:24:53.973Z,92.14
2019-01-10T00:26:03.838Z,91.9
2019-01-10T00:27:13.958Z,92.14
2019-01-10T00:28:24.076Z,91.95
2019-01-10T00:29:33.953Z,92.04
2019-01-10T00:30:44.073Z,92.33
2019-01-10T00:31:54.188Z,91.66
2019-01-10T00:33:04.301Z,91.57
2019-01-10T00:34:14.043Z,91.38
2019-01-10T00:35:24.152Z,91.57
2019-01-10T00:36:34.307Z,91.24
2019-01-10T00:37:44.424Z,91.62
2019-01-10T00:38:54.530Z,91.52
2019-01-10T00:40:04.700Z,91.52
2019-01-10T00:41:14.826Z,91.71
2019-01-10T00:42:24.819Z,91.52
2019-01-10T00:43:34.936Z,91.66
2019-01-10T00:44:45.045Z,91.57
2019-01-10T00:45:55.154Z,92.14
2019-01-10T00:47:05.275Z,91.57
2019-01-10T00:48:15.398Z,91.47
2019-01-10T00:49:25.250Z,91
2019-01-10T00:50:35.353Z,90.67
2019-01-10T00:51:45.096Z,91.33
2019-01-10T00:52:54.945Z,91.33
2019-01-10T00:54:05.063Z,91.43
2019-01-10T00:55:15.172Z,91.52
2019-01-10T00:56:25.284Z,91.33
2019-01-10T00:57:35.388Z,91.33
2019-01-10T00:58:45.493Z,90.95
2019-01-10T00:59:55.348Z,91.14
2019-01-10T01:01:05.485Z,90.77
2019-01-10T01:02:15.589Z,90.58
2019-01-10T01:03:25.720Z,90.77
2019-01-10T01:04:35.816Z,90.58
2019-01-10T01:05:45.922Z,90.77
2019-01-10T01:06:56.056Z,90.67
2019-01-10T01:08:06.192Z,90.48
2019-01-10T01:09:16.313Z,90.77
2019-01-10T01:10:26.415Z,90.67
2019-01-10T01:11:36.548Z,90.67
2019-01-10T02:17:58.994Z,88.96
2019-01-10T02:19:09.113Z,89.06
2019-01-10T02:20:19.210Z,89.25
2019-01-10T02:21:29.318Z,88.96
2019-01-10T02:22:41.119Z,88.96
2019-01-10T02:23:51.255Z,88.68
2019-01-10T02:25:01.358Z,88.49
2019-01-10T02:26:11.459Z,88.4
2019-01-10T02:27:21.570Z,88.87
2019-01-10T02:28:31.682Z,88.78
2019-01-10T02:29:41.789Z,88.96
2019-01-10T02:30:51.894Z,89.06
2019-01-10T02:32:02.053Z,89.06
2019-01-10T02:33:12.178Z,88.78
2019-01-10T02:34:22.290Z,88.78
2019-01-10T02:35:32.379Z,88.59
2019-01-10T02:36:42.507Z,88.78
2019-01-10T02:37:52.611Z,88.59
2019-01-10T02:39:02.493Z,88.96
2019-01-10T02:40:12.608Z,88.78
2019-01-10T02:41:22.726Z,88.78
2019-01-10T02:42:32.820Z,88.87
2019-01-10T02:43:42.920Z,89.15
2019-01-10T02:44:53.045Z,88.21
2019-01-10T02:46:02.898Z,88.4
2019-01-10T02:47:12.999Z,88.87
2019-01-10T02:48:23.098Z,88.96
2019-01-10T02:49:33.196Z,88.96
2019-01-10T02:50:43.049Z,89.15
2019-01-10T02:51:53.222Z,89.06
2019-01-10T02:53:03.231Z,89.34
2019-01-10T02:54:13.066Z,89.06
2019-01-10T02:55:22.907Z,89.63
2019-01-10T02:56:32.774Z,89.44
2019-01-10T02:57:42.884Z,90.01
2019-01-10T02:58:52.978Z,90.39
2019-01-10T03:00:02.816Z,90.2
2019-01-10T03:01:12.930Z,90.2
2019-01-10T03:02:23.029Z,90.39
2019-01-10T03:03:33.146Z,90.2
2019-01-10T03:04:43.241Z,90.86
2019-01-10T03:05:53.348Z,90.86
2019-01-10T03:07:03.458Z,90.58
2019-01-10T03:08:13.550Z,90.58
2019-01-10T03:09:25.709Z,90.39
2019-01-10T03:10:35.817Z,90.39
2019-01-10T03:11:45.913Z,89.91
2019-01-10T03:12:56.034Z,89.91
2019-01-10T03:14:06.141Z,89.63
2019-01-10T03:15:16.249Z,89.82
2019-01-10T03:16:26.348Z,89.15
2019-01-10T03:17:36.479Z,89.15
2019-01-10T03:18:46.578Z,89.34
2019-01-10T03:19:56.684Z,89.15
2019-01-10T03:21:06.795Z,89.06
2019-01-10T03:22:16.920Z,89.25
2019-01-10T03:23:26.787Z,89.06
2019-01-10T03:24:36.884Z,88.96
2019-01-10T03:25:46.986Z,88.59
2019-01-10T03:26:57.103Z,88.87
2019-01-10T03:28:07.203Z,89.06
2019-01-10T03:29:17.300Z,89.06
2019-01-10T03:30:27.398Z,88.78
2019-01-10T03:31:37.559Z,88.78
2019-01-10T03:32:47.717Z,88.4
2019-01-10T03:33:57.630Z,88.4
2019-01-10T03:35:07.725Z,88.4
2019-01-10T03:36:17.820Z,88.4
2019-01-10T03:37:27.664Z,88.11
2019-01-10T03:38:37.835Z,88.11
2019-01-10T03:39:47.962Z,87.92
2019-01-10T03:40:58.173Z,88.78
2019-01-10T03:42:08.273Z,88.4
2019-01-10T03:43:18.389Z,88.59
2019-01-10T03:44:36.643Z,88.4
2019-01-10T03:45:46.778Z,88.68
2019-01-10T03:46:56.875Z,88.49
2019-01-10T03:48:06.978Z,87.92
2019-01-10T03:49:17.175Z,88.02
2019-01-10T03:50:27.268Z,87.64
2019-01-10T03:51:37.363Z,88.3
2019-01-10T03:52:47.570Z,87.83
2019-01-10T03:53:57.667Z,88.11
2019-01-10T03:55:07.522Z,88.59
2019-01-10T03:56:17.628Z,88.02
2019-01-10T03:57:27.748Z,88.11
2019-01-10T03:58:37.879Z,88.3
2019-01-10T03:59:47.987Z,88.02
2019-01-10T04:01:00.224Z,87.54
2019-01-10T04:02:10.365Z,87.35
2019-01-10T04:03:20.456Z,87.35
2019-01-10T04:04:30.559Z,88.3
2019-01-10T04:05:40.659Z,88.02
2019-01-10T04:06:50.768Z,88.02
2019-01-10T04:08:00.923Z,87.83
2019-01-10T04:09:11.029Z,88.3
2019-01-10T04:10:21.120Z,87.92
2019-01-10T04:11:31.229Z,87.54
2019-01-10T04:12:41.329Z,87.64
2019-01-10T04:13:59.946Z,87.64
2019-01-10T04:15:10.045Z,87.45
2019-01-10T04:16:20.164Z,87.45
2019-01-10T04:17:30.263Z,87.07
2019-01-10T04:18:40.599Z,87.16
2019-01-10T04:19:50.707Z,86.79
2019-01-10T04:21:02.793Z,86.88
2019-01-10T04:22:22.276Z,86.98
2019-01-10T04:23:32.396Z,86.88
2019-01-10T04:24:42.492Z,86.69
2019-01-10T04:25:52.596Z,86.88
2019-01-10T04:27:02.711Z,86.98
2019-01-10T04:28:12.804Z,87.16
2019-01-10T04:29:22.913Z,87.45
2019-01-10T04:30:32.768Z,87.35
2019-01-10T04:31:42.876Z,87.73
2019-01-10T04:32:52.975Z,87.45
2019-01-10T04:34:03.103Z,87.54
2019-01-10T04:35:13.225Z,87.54
2019-01-10T04:36:23.358Z,87.35
2019-01-10T04:37:35.656Z,87.35
2019-01-10T04:38:45.772Z,87.64
2019-01-10T04:39:55.633Z,87.73
2019-01-10T04:41:05.738Z,87.73
2019-01-10T04:42:15.840Z,87.45
2019-01-10T04:43:27.224Z,87.64
2019-01-10T04:44:37.407Z,87.54
2019-01-10T04:45:47.517Z,87.64
2019-01-10T04:46:57.619Z,87.54
2019-01-10T04:48:07.720Z,87.16
2019-01-10T04:49:17.847Z,86.88
2019-01-10T04:50:27.960Z,87.16
2019-01-10T04:51:38.070Z,87.35
2019-01-10T04:52:48.275Z,87.16
2019-01-10T04:53:58.372Z,87.35
2019-01-10T04:55:08.486Z,87.07
2019-01-10T04:56:18.355Z,86.98
2019-01-10T04:57:28.457Z,87.16
2019-01-10T04:58:38.313Z,86.79
2019-01-10T04:59:48.414Z,86.88
2019-01-10T05:00:58.511Z,86.98
2019-01-10T05:02:18.041Z,86.98
2019-01-10T05:03:28.378Z,86.98
2019-01-10T05:04:38.486Z,87.07
2019-01-10T05:05:48.588Z,86.6
2019-01-10T05:06:58.706Z,86.98
2019-01-10T05:08:08.819Z,86.79
2019-01-10T05:09:18.932Z,86.6
2019-01-10T05:10:29.027Z,86.88
2019-01-10T05:11:39.134Z,86.5
2019-01-10T05:12:49.234Z,86.74
2019-01-10T05:13:59.354Z,86.46
2019-01-10T05:15:09.473Z,86.83
2019-01-10T05:16:19.585Z,86.83
2019-01-10T05:17:30.231Z,87.26
2019-01-10T05:18:40.416Z,86.98
2019-01-10T05:19:50.625Z,86.69
2019-01-10T05:21:00.750Z,86.98
2019-01-10T05:22:10.870Z,86.98
2019-01-10T05:23:22.166Z,86.98
2019-01-10T05:24:32.610Z,86.88
2019-01-10T05:25:42.699Z,86.69
2019-01-10T05:26:52.812Z,86.98
2019-01-10T05:28:02.932Z,86.88
2019-01-10T05:29:13.048Z,86.46
2019-01-10T05:30:23.251Z,86.74
2019-01-10T05:31:33.377Z,86.41
2019-01-10T05:32:43.229Z,86.5
2019-01-10T05:33:53.339Z,87.07
2019-01-10T05:35:03.463Z,86.6
2019-01-10T05:36:13.564Z,86.69
2019-01-10T05:37:23.668Z,86.69
2019-01-10T05:38:33.779Z,86.6
2019-01-10T05:39:50.025Z,86.88
2019-01-10T05:41:00.131Z,86.79
2019-01-10T05:42:10.256Z,86.79
2019-01-10T05:43:21.437Z,86.79
2019-01-10T05:44:31.546Z,86.41
2019-01-10T05:45:41.679Z,86.6
2019-01-10T05:46:51.773Z,87.26
2019-01-10T05:48:01.868Z,86.41
2019-01-10T05:49:12.004Z,86.88
2019-01-10T05:50:22.114Z,86.88
2019-01-10T05:51:32.231Z,86.79
2019-01-10T05:52:42.341Z,86.88
2019-01-10T05:53:52.470Z,87.02
2019-01-10T05:55:02.845Z,86.6
2019-01-10T05:56:17.935Z,86.98
2019-01-10T05:57:28.048Z,86.98
2019-01-10T05:58:38.161Z,87.26
2019-01-10T05:59:49.983Z,87.45
2019-01-10T06:01:00.090Z,87.07
2019-01-10T06:02:10.223Z,87.16
2019-01-10T06:03:20.336Z,87.07
2019-01-10T06:04:30.187Z,86.98
2019-01-10T06:05:40.300Z,87.07
2019-01-10T06:06:50.419Z,87.64
2019-01-10T06:08:00.523Z,87.16
2019-01-10T06:09:10.639Z,86.98
2019-01-10T06:10:20.763Z,87.26
2019-01-10T06:11:30.866Z,86.98
2019-01-10T06:12:40.969Z,87.07
2019-01-10T06:13:50.821Z,87.16
2019-01-10T06:15:00.926Z,86.88
2019-01-10T06:16:11.236Z,86.22
2019-01-10T06:17:21.341Z,86.88
2019-01-10T06:18:31.473Z,86.69
2019-01-10T06:19:41.684Z,86.22
2019-01-10T06:20:51.787Z,86.69
2019-01-10T06:22:01.895Z,86.41
2019-01-10T06:23:12.000Z,86.98
2019-01-10T06:24:23.511Z,86.55
2019-01-10T06:25:33.621Z,86.69
2019-01-10T06:26:43.739Z,86.36
2019-01-10T06:27:53.840Z,87.02
2019-01-10T06:29:04.055Z,86.83
2019-01-10T06:30:14.148Z,86.83
2019-01-10T06:31:24.255Z,86.83
2019-01-10T06:32:34.367Z,86.65
2019-01-10T06:33:44.478Z,86.79
2019-01-10T06:34:54.339Z,86.83
2019-01-10T06:36:04.486Z,87.12
2019-01-10T06:37:14.647Z,86.65
2019-01-10T06:38:24.755Z,86.36
2019-01-10T06:39:34.863Z,87.21
2019-01-10T06:40:44.959Z,87.02
2019-01-10T06:41:55.065Z,86.93
2019-01-10T06:43:04.914Z,87.02
2019-01-10T06:44:15.039Z,87.12
2019-01-10T06:45:26.984Z,86.74
2019-01-10T06:46:37.119Z,86.93
2019-01-10T06:47:47.236Z,86.27
2019-01-10T06:48:57.392Z,86.65
2019-01-10T06:50:07.482Z,86.65
2019-01-10T06:51:17.602Z,86.55
2019-01-10T06:52:27.950Z,86.83
2019-01-10T06:53:38.040Z,87.12
2019-01-10T06:54:58.743Z,87.12
2019-01-10T06:56:08.882Z,87.12
2019-01-10T06:57:18.989Z,87.12
2019-01-10T06:58:29.091Z,87.12
2019-01-10T06:59:39.231Z,87.12
2019-01-10T07:00:49.434Z,86.93
2019-01-10T07:01:59.527Z,87.12
2019-01-10T07:03:10.064Z,87.12
2019-01-10T07:04:20.184Z,87.02
2019-01-10T07:05:30.318Z,86.93
2019-01-10T07:06:40.424Z,86.93
2019-01-10T07:07:58.993Z,86.93
2019-01-10T07:09:08.731Z,87.02
2019-01-10T07:10:18.844Z,86.93
2019-01-10T07:11:28.948Z,87.12
2019-01-10T07:12:39.911Z,87.02
2019-01-10T07:13:50.064Z,86.93
2019-01-10T07:14:59.965Z,87.31
2019-01-10T07:16:10.075Z,87.78
2019-01-10T07:17:20.201Z,87.4
2019-01-10T07:18:30.326Z,88.07
2019-01-10T07:19:40.648Z,87.88
2019-01-10T07:20:52.129Z,88.54
2019-01-10T07:22:02.445Z,87.98
2019-01-10T07:23:12.312Z,88.54
2019-01-10T07:24:23.708Z,88.35
2019-01-10T07:25:33.828Z,88.92
2019-01-10T07:26:43.928Z,88.92
2019-01-10T07:27:54.022Z,88.73
2019-01-10T07:29:04.512Z,88.64
2019-01-10T07:30:14.616Z,88.73
2019-01-10T07:31:24.730Z,88.92
2019-01-10T07:32:34.832Z,89.3
2019-01-10T07:33:44.941Z,88.73
2019-01-10T07:34:55.061Z,88.35
2019-01-10T07:36:05.161Z,89.11
2019-01-10T07:37:15.732Z,88.73
2019-01-10T07:38:25.607Z,88.82
2019-01-10T07:39:35.723Z,88.73
2019-01-10T07:40:45.574Z,89.01
2019-01-10T07:41:55.790Z,88.73
2019-01-10T07:43:05.933Z,89.11
2019-01-10T07:44:15.792Z,89.11
2019-01-10T07:45:25.637Z,88.26
2019-01-10T07:46:35.481Z,88.35
2019-01-10T07:47:45.585Z,89.11
2019-01-10T07:48:55.704Z,88.35
2019-01-10T07:50:05.819Z,88.45
2019-01-10T07:51:16.067Z,89.01
2019-01-10T07:52:26.191Z,89.01
2019-01-10T07:53:37.549Z,88.64
2019-01-10T07:54:47.668Z,88.64
2019-01-10T07:55:57.777Z,88.82
2019-01-10T07:57:07.933Z,88.92
2019-01-10T07:58:18.050Z,88.26
2019-01-10T07:59:28.183Z,88.26
2019-01-10T08:00:38.313Z,88.64
2019-01-10T08:01:48.425Z,88.26
2019-01-10T08:02:58.537Z,87.98
2019-01-10T08:04:08.662Z,88.26
2019-01-10T08:05:18.781Z,87.78
2019-01-10T08:06:28.896Z,87.78
2019-01-10T08:07:39.003Z,87.88
2019-01-10T08:08:49.129Z,87.98
2019-01-10T08:09:59.232Z,87.98
2019-01-10T08:11:09.346Z,87.5
2019-01-10T08:12:19.439Z,87.59
2019-01-10T08:13:29.534Z,87.35
2019-01-10T08:14:39.634Z,87.54
2019-01-10T08:15:49.750Z,87.35
2019-01-10T08:16:59.508Z,87.64
2019-01-10T08:18:18.864Z,87.64
2019-01-10T08:19:28.950Z,87.16
2019-01-10T08:20:39.053Z,87.35
2019-01-10T08:21:49.233Z,87.54
2019-01-10T08:22:59.430Z,86.98
2019-01-10T08:24:09.631Z,86.98
2019-01-10T08:25:19.418Z,86.5
2019-01-10T08:26:29.522Z,86.41
2019-01-10T08:27:39.417Z,86.41
2019-01-10T08:28:49.609Z,86.6
2019-01-10T08:29:59.707Z,86.69
2019-01-10T08:31:09.572Z,86.22
2019-01-10T08:32:19.709Z,86.12
2019-01-10T08:33:29.858Z,86.79
2019-01-10T08:34:40.037Z,86.69
2019-01-10T08:35:50.161Z,86.5
2019-01-10T08:37:00.269Z,86.69
2019-01-10T08:38:10.372Z,86.6
2019-01-10T08:39:20.475Z,86.69
2019-01-10T08:40:30.616Z,85.93
2019-01-10T08:41:40.729Z,86.03
2019-01-10T08:42:50.830Z,86.03
2019-01-10T08:44:01.072Z,85.84
2019-01-10T08:45:10.952Z,85.74
2019-01-10T08:46:29.461Z,86.03
2019-01-10T08:47:39.605Z,86.22
2019-01-10T08:48:49.740Z,86.41
2019-01-10T08:49:59.861Z,86.41
2019-01-10T08:51:09.992Z,86.31
2019-01-10T08:52:20.121Z,86.22
2019-01-10T08:53:30.257Z,85.93
2019-01-10T08:54:40.409Z,85.78
2019-01-10T08:55:50.532Z,85.6
2019-01-10T08:57:00.633Z,85.78
2019-01-10T08:58:10.763Z,85.41
2019-01-10T08:59:20.879Z,85.41
2019-01-10T09:00:31.214Z,85.41
2019-01-10T09:01:41.081Z,85.41
2019-01-10T09:02:51.200Z,85.41
2019-01-10T09:04:01.305Z,85.22
2019-01-10T09:05:12.313Z,85.31
2019-01-10T09:06:22.547Z,85.22
2019-01-10T09:07:32.659Z,85.31
2019-01-10T09:08:42.781Z,85.41
2019-01-10T09:09:52.883Z,84.65
2019-01-10T09:11:03.249Z,84.74
2019-01-10T09:12:13.110Z,84.17
2019-01-10T09:13:23.231Z,84.36
2019-01-10T09:14:33.352Z,83.98
2019-01-10T09:15:43.608Z,83.98
2019-01-10T09:16:53.754Z,84.27
2019-01-10T09:18:03.876Z,84.27
2019-01-10T09:19:14.102Z,83.8
2019-01-10T09:20:24.233Z,83.51
2019-01-10T09:21:34.341Z,82.75
2019-01-10T09:22:44.473Z,82.66
2019-01-10T09:23:54.584Z,83.04
2019-01-10T09:25:04.727Z,83.13
2019-01-10T09:26:14.847Z,83.51
2019-01-10T09:27:24.968Z,83.51
2019-01-10T09:28:35.071Z,83.61
2019-01-10T09:29:45.208Z,83.89
2019-01-10T09:30:55.350Z,83.32
2019-01-10T09:32:05.463Z,83.51
2019-01-10T09:33:15.586Z,83.42
2019-01-10T09:34:27.483Z,83.32
2019-01-10T09:35:37.602Z,83.42
2019-01-10T09:36:47.380Z,83.04
2019-01-10T09:37:57.250Z,82.85
2019-01-10T09:39:07.403Z,82.75
2019-01-10T09:40:17.545Z,82.09
2019-01-10T09:41:27.653Z,82.66
2019-01-10T09:42:37.838Z,82.47
2019-01-10T09:43:47.964Z,82.37
2019-01-10T09:44:58.087Z,82.47
2019-01-10T09:46:08.200Z,82.79
2019-01-10T09:47:18.331Z,81.62
2019-01-10T09:48:28.430Z,81.85
2019-01-10T09:49:38.575Z,82.23
2019-01-10T09:50:48.450Z,81.56
2019-01-10T09:51:58.692Z,81.37
2019-01-10T09:53:08.850Z,81.47
2019-01-10T09:54:18.987Z,81.27
2019-01-10T09:55:29.112Z,81.47
2019-01-10T09:56:39.231Z,81.47
2019-01-10T09:57:49.351Z,81.27
2019-01-10T09:58:59.460Z,81.27
2019-01-10T10:00:09.579Z,80.8
2019-01-10T10:01:19.709Z,79.76
2019-01-10T10:02:29.848Z,80.14
2019-01-10T10:03:40.206Z,79.1
2019-01-10T10:04:50.358Z,79.47
2019-01-10T10:06:10.045Z,79.38
2019-01-10T10:07:20.217Z,79.28
2019-01-10T10:08:30.355Z,79.28
2019-01-10T10:09:40.518Z,79.57
2019-01-10T10:10:50.655Z,79.1
2019-01-10T10:12:00.778Z,79.19
2019-01-10T10:13:10.894Z,79
2019-01-10T10:14:21.019Z,79.19
2019-01-10T10:15:31.134Z,79
2019-01-10T10:16:41.270Z,78.81
2019-01-10T10:17:51.407Z,78.34
2019-01-10T10:19:01.548Z,78.05
2019-01-10T10:20:11.725Z,78.43
2019-01-10T10:21:22.586Z,78.62
2019-01-10T10:22:32.739Z,78.43
2019-01-10T10:23:42.869Z,77.86
2019-01-10T10:24:53.055Z,78.05
2019-01-10T10:26:03.200Z,77.67
2019-01-10T10:27:13.322Z,76.39
2019-01-10T10:28:23.462Z,75.49
2019-01-10T10:29:33.564Z,75.96
2019-01-10T10:30:43.692Z,76.63
2019-01-10T10:31:53.834Z,76.34
2019-01-10T10:33:03.955Z,75.87
2019-01-10T10:34:14.073Z,74.87
2019-01-10T10:35:24.213Z,73.92
2019-01-10T10:36:34.330Z,74.3
2019-01-10T10:37:44.189Z,72.59
2019-01-10T10:38:54.302Z,72.68
2019-01-10T10:40:04.422Z,72.59
2019-01-10T10:41:14.554Z,72.97
2019-01-10T10:42:25.629Z,72.21
2019-01-10T10:43:35.700Z,72.21
2019-01-10T10:44:45.811Z,72.4
2019-01-10T10:46:03.854Z,72.21
2019-01-10T10:47:13.994Z,72.59
2019-01-10T10:48:24.118Z,71.83
2019-01-10T10:49:34.252Z,70.5
2019-01-10T10:50:44.386Z,70.4
2019-01-10T10:51:54.520Z,70.06
2019-01-10T10:53:04.644Z,70.15
2019-01-10T10:54:14.752Z,69.59
2019-01-10T10:55:24.876Z,69.96
2019-01-10T10:56:35.005Z,69.49
2019-01-10T10:57:44.684Z,69.96
2019-01-10T10:58:54.823Z,70.44
2019-01-10T11:00:04.937Z,70.54
2019-01-10T11:01:15.065Z,70.73
2019-01-10T11:02:25.265Z,70.92
2019-01-10T11:03:35.399Z,71.11
2019-01-10T11:04:46.715Z,71.17
2019-01-10T11:05:56.837Z,70.69
2019-01-10T11:07:06.960Z,71.55
2019-01-10T11:08:17.085Z,72.21
2019-01-10T11:09:27.197Z,72.3
2019-01-10T11:10:37.372Z,72.88
2019-01-10T11:11:47.499Z,73.16
2019-01-10T11:12:57.630Z,73.35
2019-01-10T11:14:07.785Z,73.97
2019-01-10T11:15:18.025Z,74.26
2019-01-10T11:16:28.158Z,74.45
2019-01-10T11:17:38.299Z,74.83
2019-01-10T11:18:48.407Z,74.92
2019-01-10T11:19:58.518Z,75.4
2019-01-10T11:21:08.639Z,76.15
2019-01-10T11:22:18.744Z,76.44
2019-01-10T11:23:28.861Z,76.44
2019-01-10T11:24:39.961Z,77.01
2019-01-10T11:25:50.091Z,76.92
2019-01-10T11:27:00.209Z,76.54
2019-01-10T11:28:10.342Z,76.25
2019-01-10T11:29:20.462Z,76.54
2019-01-10T11:30:30.603Z,76.15
2019-01-10T11:31:40.726Z,75.96
2019-01-10T11:32:50.865Z,76.15
2019-01-10T11:34:01.650Z,76.25
2019-01-10T11:35:11.775Z,76.44
2019-01-10T11:36:21.911Z,76.4
2019-01-10T11:37:31.792Z,76.15
2019-01-10T11:38:41.950Z,76.5
2019-01-10T11:39:53.062Z,76.5
2019-01-10T11:41:03.440Z,76.68
2019-01-10T11:42:13.577Z,76.31
2019-01-10T11:43:23.688Z,75.93
2019-01-10T11:44:33.824Z,76.4
2019-01-10T11:45:43.701Z,76.21
2019-01-10T11:46:53.817Z,76.4
2019-01-10T11:48:03.966Z,76.31
2019-01-10T11:49:14.081Z,75.64
2019-01-10T11:50:24.220Z,75.74
2019-01-10T11:51:34.348Z,75.64
2019-01-10T11:52:44.469Z,75.84
2019-01-10T11:53:54.597Z,76.4
2019-01-10T11:55:04.367Z,76.31
2019-01-10T11:56:14.483Z,75.74
2019-01-10T11:57:24.609Z,75.74
2019-01-10T11:58:34.725Z,76.5
2019-01-10T11:59:44.840Z,77.16
2019-01-10T12:00:54.984Z,77.16
2019-01-10T12:02:04.836Z,77.64
2019-01-10T12:03:14.954Z,77.54
2019-01-10T12:04:25.097Z,77.45
2019-01-10T12:05:35.215Z,77.83
2019-01-10T12:06:56.117Z,78.11
2019-01-10T12:08:06.292Z,77.73
2019-01-10T12:09:16.419Z,77.83
2019-01-10T12:10:26.532Z,77.35
2019-01-10T12:11:38.277Z,76.5
2019-01-10T12:12:48.562Z,76.03
2019-01-10T12:13:58.693Z,75.74
2019-01-10T12:15:08.811Z,76.12
2019-01-10T12:16:18.949Z,75.64
2019-01-10T12:17:36.347Z,75.74
2019-01-10T12:18:46.473Z,76.59
2019-01-10T12:20:04.493Z,77.06
2019-01-10T12:21:14.245Z,77.25
2019-01-10T12:22:24.375Z,77.92
2019-01-10T12:23:34.495Z,77.35
2019-01-10T12:24:44.636Z,76.59
2019-01-10T12:25:54.800Z,76.87
2019-01-10T12:27:04.913Z,76.21
2019-01-10T12:28:15.024Z,76.03
2019-01-10T12:29:25.132Z,76.21
2019-01-10T12:30:43.792Z,76.4
2019-01-10T12:31:53.665Z,76.21
2019-01-10T12:33:03.771Z,76.12
2019-01-10T12:34:13.880Z,76.21
2019-01-10T12:35:24.038Z,76.68
2019-01-10T12:36:35.161Z,77.06
2019-01-10T12:37:45.270Z,77.45
2019-01-10T12:38:55.420Z,77.54
2019-01-10T12:40:06.571Z,77.83
2019-01-10T12:41:16.692Z,77.92
2019-01-10T12:42:27.037Z,77.73
2019-01-10T12:43:37.160Z,77.83
2019-01-10T12:44:47.269Z,77.92
2019-01-10T12:45:57.411Z,77.35
2019-01-10T12:47:09.093Z,77.73
2019-01-10T12:48:19.215Z,77.83
2019-01-10T12:49:29.330Z,77.73
2019-01-10T12:50:39.439Z,77.73
2019-01-10T12:51:49.547Z,78.11
2019-01-10T12:52:59.666Z,77.92
2019-01-10T12:54:09.814Z,77.92
2019-01-10T12:55:19.944Z,77.45
2019-01-10T12:56:30.065Z,77.83
2019-01-10T12:57:40.201Z,78.11
2019-01-10T12:58:50.438Z,77.35
2019-01-10T13:00:00.301Z,77.16
2019-01-10T13:01:10.480Z,76.87
2019-01-10T13:02:20.610Z,76.31
2019-01-10T13:03:30.759Z,75.64
2019-01-10T13:04:40.899Z,75.55
2019-01-10T13:05:51.030Z,75.74
2019-01-10T13:07:01.159Z,75.26
2019-01-10T13:08:11.268Z,74.79
2019-01-10T13:09:21.119Z,73.56
2019-01-10T13:10:30.995Z,73.37
2019-01-10T13:11:41.114Z,72.99
2019-01-10T13:12:51.246Z,72.99
2019-01-10T13:14:05.357Z,72.71
2019-01-10T13:15:15.730Z,72.33
2019-01-10T13:16:25.885Z,72.99
2019-01-10T13:17:36.017Z,72.71
2019-01-10T13:18:46.151Z,72.71
2019-01-10T13:19:56.269Z,72.89
2019-01-10T13:21:06.429Z,72.71
2019-01-10T13:22:17.568Z,73.08
2019-01-10T13:23:27.703Z,72.8
2019-01-10T13:24:37.853Z,73.37
2019-01-10T13:25:49.665Z,73.46
2019-01-10T13:27:07.499Z,74.6
2019-01-10T13:28:17.643Z,74.32
2019-01-10T13:29:27.799Z,74.88
2019-01-10T13:30:37.926Z,75.07
2019-01-10T13:31:48.940Z,74.79
2019-01-10T13:32:58.703Z,75.45
2019-01-10T13:34:08.828Z,75.74
2019-01-10T13:35:18.963Z,76.03
2019-01-10T13:36:29.110Z,75.74
2019-01-10T13:37:39.247Z,76.31
2019-01-10T13:38:49.381Z,76.31
2019-01-10T13:39:59.516Z,76.78
2019-01-10T13:41:10.642Z,76.87
2019-01-10T13:42:20.912Z,77.16
2019-01-10T13:43:31.059Z,76.68
2019-01-10T13:44:41.161Z,77.25
2019-01-10T13:45:51.297Z,76.87
2019-01-10T13:47:03.259Z,77.06
2019-01-10T13:48:13.421Z,76.87
2019-01-10T13:49:23.557Z,77.16
2019-01-10T13:50:33.679Z,76.87
2019-01-10T13:51:43.805Z,76.21
2019-01-10T13:52:53.929Z,75.84
2019-01-10T13:54:04.057Z,75.84
2019-01-10T13:55:13.929Z,75.64
2019-01-10T13:56:24.064Z,74.98
2019-01-10T13:57:34.203Z,74.51
2019-01-10T13:58:44.327Z,74.22
2019-01-10T13:59:54.465Z,73.94
2019-01-10T14:01:04.584Z,73.65
2019-01-10T14:02:14.735Z,73.37
2019-01-10T14:03:24.874Z,73.56
2019-01-10T14:04:35.029Z,73.18
2019-01-10T14:05:45.153Z,73.56
2019-01-10T14:06:55.274Z,73.65
2019-01-10T14:08:05.436Z,73.18
2019-01-10T14:09:15.586Z,73.27
2019-01-10T14:10:25.753Z,73.94
2019-01-10T14:11:35.886Z,73.37
2019-01-10T14:12:46.013Z,73.84
2019-01-10T14:13:56.148Z,73.94
2019-01-10T14:15:06.272Z,73.75
2019-01-10T14:16:16.401Z,73.75
2019-01-10T14:17:26.526Z,73.65
2019-01-10T14:18:36.701Z,73.94
2019-01-10T14:19:46.826Z,73.94
2019-01-10T14:20:57.921Z,73.65
2019-01-10T14:22:08.043Z,73.56
2019-01-10T14:23:18.178Z,73.65
2019-01-10T14:24:28.291Z,73.37
2019-01-10T14:25:38.408Z,73.56
2019-01-10T14:26:48.534Z,73.18
2019-01-10T14:28:01.713Z,72.8
2019-01-10T14:29:11.877Z,72.89
2019-01-10T14:30:23.439Z,72.8
2019-01-10T14:31:33.550Z,73.08
2019-01-10T14:32:43.692Z,72.99
2019-01-10T14:33:53.821Z,72.89
2019-01-10T14:35:03.949Z,73.08
2019-01-10T14:36:14.088Z,72.8
2019-01-10T14:37:24.247Z,72.8
2019-01-10T14:38:34.166Z,72.8
2019-01-10T14:39:44.307Z,73.46
2019-01-10T14:40:54.678Z,73.27
2019-01-10T14:42:04.803Z,72.89
2019-01-10T14:43:14.921Z,72.61
2019-01-10T14:44:25.051Z,72.71
2019-01-10T14:45:35.901Z,72.8
2019-01-10T14:46:46.134Z,72.89
2019-01-10T14:48:01.642Z,72.52
2019-01-10T14:49:11.998Z,72.14
2019-01-10T14:50:22.138Z,71.95
2019-01-10T14:51:32.293Z,71.85
2019-01-10T14:52:42.411Z,72.23
2019-01-10T14:53:52.588Z,72.23
2019-01-10T14:55:02.735Z,72.23
2019-01-10T14:56:12.866Z,72.23
2019-01-10T14:57:23.010Z,72.14
2019-01-10T14:58:33.166Z,72.04
2019-01-10T14:59:43.291Z,71.85
2019-01-10T15:00:53.159Z,72.14
2019-01-10T15:02:03.301Z,71.95
2019-01-10T15:03:14.917Z,72.52
2019-01-10T15:04:25.064Z,72.14
2019-01-10T15:05:37.184Z,72.14
2019-01-10T15:06:47.307Z,72.61
2019-01-10T15:07:57.592Z,72.71
2019-01-10T15:09:07.950Z,72.52
2019-01-10T15:10:18.110Z,72.33
2019-01-10T15:11:28.258Z,72.99
2019-01-10T15:12:38.415Z,72.89
2019-01-10T15:13:49.851Z,72.89
2019-01-10T15:15:00.162Z,72.89
2019-01-10T15:16:10.047Z,72.99
2019-01-10T15:17:20.184Z,72.99
2019-01-10T15:18:30.318Z,72.8
2019-01-10T15:19:40.479Z,72.61
2019-01-10T15:20:50.610Z,73.08
2019-01-10T15:22:01.594Z,72.99
2019-01-10T15:23:11.745Z,73.08
2019-01-10T15:24:21.865Z,72.89
2019-01-10T15:25:32.022Z,72.8
2019-01-10T15:26:42.186Z,72.99
2019-01-10T15:27:52.358Z,72.89
2019-01-10T15:29:02.553Z,73.08
2019-01-10T15:30:12.441Z,72.99
2019-01-10T15:31:22.609Z,73.08
2019-01-10T15:32:32.744Z,72.99
2019-01-10T15:33:42.912Z,73.56
2019-01-10T15:34:53.049Z,73.27
2019-01-10T15:36:03.201Z,73.37
2019-01-10T15:37:13.376Z,73.46
2019-01-10T15:38:23.571Z,73.27
2019-01-10T15:39:33.704Z,73.18
2019-01-10T15:40:43.845Z,73.08
2019-01-10T15:41:53.980Z,73.37
2019-01-10T15:43:04.127Z,73.65
2019-01-10T15:44:14.260Z,73.84
2019-01-10T15:45:24.449Z,73.75
2019-01-10T15:46:34.632Z,73.71
2019-01-10T15:47:44.802Z,73.56
2019-01-10T15:48:54.960Z,72.8
2019-01-10T15:50:05.285Z,72.89
2019-01-10T15:51:15.428Z,73.05
2019-01-10T15:52:25.219Z,72.86
2019-01-10T15:53:35.375Z,72.86
2019-01-10T15:54:45.356Z,72.8
2019-01-10T15:55:55.567Z,72.77
2019-01-10T15:57:05.767Z,73.08
2019-01-10T15:58:15.904Z,72.89
2019-01-10T15:59:26.078Z,72.86
2019-01-10T16:00:36.210Z,72.89
2019-01-10T16:01:46.344Z,72.86
2019-01-10T16:02:56.471Z,72.77
2019-01-10T16:04:09.740Z,72.96
2019-01-10T16:05:20.168Z,73.05
2019-01-10T16:06:30.299Z,72.86
2019-01-10T16:07:40.437Z,72.99
2019-01-10T16:08:50.590Z,72.86
2019-01-10T16:10:00.747Z,72.86
2019-01-10T16:11:10.917Z,72.96
2019-01-10T16:12:21.067Z,72.86
2019-01-10T16:13:31.236Z,72.77
2019-01-10T16:14:41.413Z,72.77